Time;durP1;ratioP1;P1;durP2;ratioP2;P2;SDS_P1;SDS_P2;PMS_P1;PMS_P2;Temp;Humidity;BMP_temperature;BMP_pressure;BME280_temperature;BME280_humidity;BME280_pressure;Samples;Min_cycle;Max_cycle;Signal;HPM_P1;HPM_P2
2022/08/02 00:00:22;;;;;;;8.80;2.85;;;;;;;;;;4993413;28;20405;-67
2022/08/02 00:02:49;;;;;;;6.32;3.13;;;;;;;;;;4977438;28;20045;-67
2022/08/02 00:05:15;;;;;;;9.77;3.28;;;;;;;;;;4994701;28;20050;-67
2022/08/02 00:07:41;;;;;;;4.85;2.80;;;;;;;;;;4976740;28;20046;-67
2022/08/02 00:10:09;;;;;;;6.55;3.10;;;;;;;;;;4994859;28;20042;-67
2022/08/02 00:12:35;;;;;;;10.10;3.05;;;;;;;;;;4977366;28;20049;-67
2022/08/02 00:15:01;;;;;;;6.05;2.83;;;;;;;;;;4994336;28;20041;-67
2022/08/02 00:17:27;;;;;;;4.60;2.90;;;;;;;;;;4994710;28;20453;-67
2022/08/02 00:19:53;;;;;;;6.78;2.60;;;;;;;;;;4994466;28;20054;-67
2022/08/02 00:22:19;;;;;;;8.93;3.45;;;;;;;;;;4994121;28;20049;-67
2022/08/02 00:24:45;;;;;;;7.45;2.95;;;;;;;;;;4994936;28;20078;-67
2022/08/02 00:27:11;;;;;;;5.15;3.00;;;;;;;;;;4994262;28;20053;-67
2022/08/02 00:29:38;;;;;;;6.50;2.90;;;;;;;;;;4976582;28;20046;-67
2022/08/02 00:32:04;;;;;;;4.32;2.72;;;;;;;;;;4994649;28;20046;-67
2022/08/02 00:34:30;;;;;;;7.13;3.10;;;;;;;;;;4976730;28;20039;-67
2022/08/02 00:36:56;;;;;;;5.05;2.67;;;;;;;;;;4976352;28;20535;-67
2022/08/02 00:39:22;;;;;;;7.53;3.17;;;;;;;;;;4976600;28;20398;-67
2022/08/02 00:41:50;;;;;;;4.70;2.75;;;;;;;;;;4976726;28;20050;-67
2022/08/02 00:44:16;;;;;;;8.95;2.88;;;;;;;;;;4993935;28;20271;-67
2022/08/02 00:46:43;;;;;;;5.97;2.95;;;;;;;;;;4993923;28;20049;-68
2022/08/02 00:49:11;;;;;;;4.90;2.63;;;;;;;;;;4994280;28;20050;-67
2022/08/02 00:51:37;;;;;;;4.93;2.85;;;;;;;;;;4993925;28;20137;-67
2022/08/02 00:54:03;;;;;;;7.35;3.20;;;;;;;;;;4993518;28;20041;-67
2022/08/02 00:56:29;;;;;;;6.57;2.80;;;;;;;;;;4976437;28;20046;-67
2022/08/02 00:58:55;;;;;;;6.38;2.92;;;;;;;;;;4976529;28;20050;-67
2022/08/02 01:01:37;;;;;;;8.90;3.22;;;;;;;;;;4976015;28;20046;-67
2022/08/02 01:04:07;;;;;;;6.30;3.78;;;;;;;;;;4976311;28;20078;-67
2022/08/02 01:06:34;;;;;;;5.88;3.63;;;;;;;;;;4975509;28;20104;-67
2022/08/02 01:09:00;;;;;;;9.25;3.35;;;;;;;;;;4993841;28;20440;-67
2022/08/02 01:11:27;;;;;;;8.68;3.70;;;;;;;;;;4975341;28;20089;-67
2022/08/02 01:13:56;;;;;;;9.60;3.53;;;;;;;;;;4993467;28;20133;-67
2022/08/02 01:16:25;;;;;;;9.85;3.80;;;;;;;;;;4975922;28;20042;-67
2022/08/02 01:18:54;;;;;;;6.20;3.25;;;;;;;;;;4975899;28;20118;-67
2022/08/02 01:21:29;;;;;;;6.53;3.58;;;;;;;;;;4993361;28;20413;-67
2022/08/02 01:24:01;;;;;;;9.48;4.00;;;;;;;;;;4993670;28;20042;-67
2022/08/02 01:26:46;;;;;;;7.60;3.42;;;;;;;;;;4993464;28;20047;-67
2022/08/02 01:29:28;;;;;;;10.82;3.97;;;;;;;;;;4975659;28;20054;-67
2022/08/02 01:32:06;;;;;;;7.28;3.72;;;;;;;;;;4975648;28;20583;-67
2022/08/02 01:34:50;;;;;;;7.03;3.83;;;;;;;;;;4959541;28;20035;-67
2022/08/02 01:37:22;;;;;;;10.88;3.72;;;;;;;;;;4975133;28;20100;-67
2022/08/02 01:39:56;;;;;;;11.50;3.97;;;;;;;;;;4993166;28;20057;-67
2022/08/02 01:42:24;;;;;;;7.90;3.88;;;;;;;;;;4975375;28;20070;-67
2022/08/02 01:44:51;;;;;;;7.22;3.47;;;;;;;;;;4992817;28;20093;-67
2022/08/02 01:47:21;;;;;;;7.60;3.22;;;;;;;;;;4992585;28;20124;-67
2022/08/02 01:49:49;;;;;;;9.38;4.20;;;;;;;;;;4975051;28;20054;-67
2022/08/02 01:52:22;;;;;;;8.48;3.75;;;;;;;;;;4992226;28;20049;-67
2022/08/02 01:55:08;;;;;;;8.25;3.58;;;;;;;;;;4974936;28;20043;-67
2022/08/02 01:57:36;;;;;;;6.72;3.22;;;;;;;;;;4992384;28;20042;-67
2022/08/02 02:00:04;;;;;;;8.25;3.90;;;;;;;;;;4992367;28;20149;-67
2022/08/02 02:02:30;;;;;;;10.50;3.85;;;;;;;;;;4992538;28;20039;-67
2022/08/02 02:04:57;;;;;;;9.82;3.60;;;;;;;;;;4992558;28;20042;-67
2022/08/02 02:07:23;;;;;;;6.22;4.15;;;;;;;;;;4958753;28;20497;-67
2022/08/02 02:09:50;;;;;;;8.35;4.40;;;;;;;;;;4975111;28;20039;-67
2022/08/02 02:12:16;;;;;;;7.93;3.70;;;;;;;;;;4992467;28;20130;-67
2022/08/02 02:14:43;;;;;;;7.63;3.80;;;;;;;;;;4992145;28;20388;-67
2022/08/02 02:17:11;;;;;;;8.35;3.88;;;;;;;;;;4974966;28;20072;-67
2022/08/02 02:19:38;;;;;;;10.30;4.20;;;;;;;;;;4974881;28;20055;-67
2022/08/02 02:22:04;;;;;;;9.85;3.97;;;;;;;;;;4974470;28;20046;-67
2022/08/02 02:24:30;;;;;;;13.85;4.07;;;;;;;;;;4991585;28;20125;-67
2022/08/02 02:26:58;;;;;;;6.95;4.03;;;;;;;;;;4974442;28;20054;-67
2022/08/02 02:29:25;;;;;;;12.48;4.50;;;;;;;;;;4958430;28;20503;-67
2022/08/02 02:31:53;;;;;;;7.45;4.05;;;;;;;;;;4992198;28;20038;-67
2022/08/02 02:34:36;;;;;;;10.57;4.65;;;;;;;;;;4992102;28;20042;-67
2022/08/02 02:37:04;;;;;;;6.05;4.13;;;;;;;;;;4973880;28;20041;-67
2022/08/02 02:39:30;;;;;;;7.70;4.13;;;;;;;;;;4974360;28;20042;-67
2022/08/02 02:42:00;;;;;;;10.02;4.97;;;;;;;;;;4974593;28;20112;-67
2022/08/02 02:44:26;;;;;;;8.05;4.43;;;;;;;;;;4991546;28;20046;-67
2022/08/02 02:46:54;;;;;;;11.95;4.30;;;;;;;;;;4974160;28;20058;-67
2022/08/02 02:49:20;;;;;;;14.48;4.97;;;;;;;;;;4974133;28;20133;-67
2022/08/02 02:51:47;;;;;;;11.43;5.20;;;;;;;;;;4991085;28;20042;-67
2022/08/02 02:54:15;;;;;;;9.73;4.72;;;;;;;;;;4974016;28;20042;-67
2022/08/02 02:56:42;;;;;;;8.82;4.30;;;;;;;;;;4991820;28;20053;-67
2022/08/02 02:59:08;;;;;;;8.65;4.75;;;;;;;;;;4973720;28;20130;-67
2022/08/02 03:01:34;;;;;;;10.57;5.15;;;;;;;;;;4974316;28;20038;-67
2022/08/02 03:04:02;;;;;;;10.82;5.20;;;;;;;;;;4974152;28;20085;-67
2022/08/02 03:06:29;;;;;;;14.13;5.43;;;;;;;;;;4973489;28;20053;-67
2022/08/02 03:08:55;;;;;;;12.00;4.60;;;;;;;;;;4973951;28;20402;-67
2022/08/02 03:11:21;;;;;;;12.20;4.30;;;;;;;;;;4973757;28;20093;-67
2022/08/02 03:13:47;;;;;;;9.18;5.05;;;;;;;;;;4991268;28;20038;-67
2022/08/02 03:16:14;;;;;;;10.07;4.68;;;;;;;;;;4973771;28;20042;-67
2022/08/02 03:18:41;;;;;;;13.68;5.82;;;;;;;;;;4991678;28;20034;-67
2022/08/02 03:21:11;;;;;;;11.40;5.32;;;;;;;;;;4991369;28;20042;-67
2022/08/02 03:23:37;;;;;;;10.95;5.15;;;;;;;;;;4991319;28;20124;-67
2022/08/02 03:26:04;;;;;;;10.02;4.85;;;;;;;;;;4991284;28;20091;-67
2022/08/02 03:28:30;;;;;;;11.90;4.90;;;;;;;;;;4973474;28;20105;-67
2022/08/02 03:30:56;;;;;;;11.15;4.82;;;;;;;;;;4973670;28;20081;-67
2022/08/02 03:33:23;;;;;;;12.82;4.95;;;;;;;;;;4974019;28;20106;-67
2022/08/02 03:35:50;;;;;;;8.75;5.00;;;;;;;;;;4979452;28;20042;-67
2022/08/02 03:38:18;;;;;;;11.75;5.25;;;;;;;;;;4980264;28;20204;-67
2022/08/02 03:40:45;;;;;;;10.95;5.40;;;;;;;;;;4980408;28;20125;-67
2022/08/02 03:43:11;;;;;;;11.65;5.03;;;;;;;;;;4979801;28;20081;-67
2022/08/02 03:45:39;;;;;;;9.82;4.97;;;;;;;;;;4980158;28;20042;-67
2022/08/02 03:48:05;;;;;;;12.80;5.70;;;;;;;;;;4997338;28;20498;-67
2022/08/02 03:50:32;;;;;;;13.82;5.07;;;;;;;;;;4979473;28;20046;-67
2022/08/02 03:52:59;;;;;;;10.90;5.47;;;;;;;;;;4964017;28;20049;-67
2022/08/02 03:55:25;;;;;;;11.48;4.70;;;;;;;;;;4980070;28;20114;-67
2022/08/02 03:57:51;;;;;;;14.32;5.75;;;;;;;;;;4979389;28;20042;-67
2022/08/02 04:00:19;;;;;;;9.80;5.03;;;;;;;;;;4979864;28;20671;-67
2022/08/02 04:02:45;;;;;;;13.55;5.68;;;;;;;;;;4979838;28;20412;-67
2022/08/02 04:05:11;;;;;;;12.70;5.72;;;;;;;;;;4997055;28;20072;-67
2022/08/02 04:07:37;;;;;;;10.38;5.55;;;;;;;;;;4979715;28;20072;-67
2022/08/02 04:10:04;;;;;;;13.05;5.85;;;;;;;;;;4997466;28;20053;-67
2022/08/02 04:12:30;;;;;;;14.18;5.65;;;;;;;;;;4996817;28;20122;-67
2022/08/02 04:14:57;;;;;;;12.00;5.60;;;;;;;;;;4979544;28;20053;-67
2022/08/02 04:17:23;;;;;;;14.93;5.22;;;;;;;;;;4979557;28;20102;-67
2022/08/02 04:19:52;;;;;;;8.77;5.60;;;;;;;;;;4979526;28;20073;-67
2022/08/02 04:22:24;;;;;;;13.15;5.13;;;;;;;;;;4997541;28;20499;-67
2022/08/02 04:24:50;;;;;;;;;;;;;;;;;;4980390;28;20042;-67
2022/08/02 04:27:17;;;;;;;10.27;5.70;;;;;;;;;;4997022;28;19926;-67
2022/08/02 04:29:43;;;;;;;15.30;5.60;;;;;;;;;;4979826;28;20097;-67
2022/08/02 04:32:09;;;;;;;11.40;5.65;;;;;;;;;;4979600;28;20043;-67
2022/08/02 04:34:35;;;;;;;13.52;6.22;;;;;;;;;;4979385;28;20046;-67
2022/08/02 04:37:01;;;;;;;13.25;5.45;;;;;;;;;;4979649;28;20042;-67
2022/08/02 04:39:28;;;;;;;14.98;5.55;;;;;;;;;;4979564;28;20042;-67
2022/08/02 04:41:54;;;;;;;12.70;5.93;;;;;;;;;;4979159;28;20122;-67
2022/08/02 04:44:20;;;;;;;10.07;5.68;;;;;;;;;;4963398;28;20042;-67
2022/08/02 04:46:46;;;;;;;13.35;6.05;;;;;;;;;;4976068;28;20772;-67
2022/08/02 04:49:12;;;;;;;14.45;6.07;;;;;;;;;;4976170;28;20105;-67
2022/08/02 04:51:39;;;;;;;12.05;6.00;;;;;;;;;;4976401;28;20046;-67
2022/08/02 04:54:06;;;;;;;15.77;6.18;;;;;;;;;;4976390;28;20046;-67
2022/08/02 04:56:32;;;;;;;15.82;7.35;;;;;;;;;;4975832;28;20093;-67
2022/08/02 04:58:58;;;;;;;9.95;6.03;;;;;;;;;;4993659;28;20057;-67
2022/08/02 05:01:24;;;;;;;16.38;6.30;;;;;;;;;;4994016;28;20532;-67
2022/08/02 05:03:50;;;;;;;10.27;6.28;;;;;;;;;;4976139;28;20479;-67
2022/08/02 05:06:18;;;;;;;13.45;5.53;;;;;;;;;;4976070;28;20059;-67
2022/08/02 05:08:44;;;;;;;10.63;6.00;;;;;;;;;;4975980;28;20046;-67
2022/08/02 05:11:10;;;;;;;12.15;5.88;;;;;;;;;;4975322;28;20050;-67
2022/08/02 05:13:36;;;;;;;11.70;5.78;;;;;;;;;;4976042;28;20064;-67
2022/08/02 05:16:03;;;;;;;13.77;6.22;;;;;;;;;;4976078;28;20465;-67
2022/08/02 05:18:29;;;;;;;8.95;5.80;;;;;;;;;;4975442;28;20046;-67
2022/08/02 05:20:56;;;;;;;11.57;6.22;;;;;;;;;;4975754;28;20046;-67
2022/08/02 05:23:22;;;;;;;8.90;5.65;;;;;;;;;;4975819;28;20074;-67
2022/08/02 05:25:48;;;;;;;12.32;6.88;;;;;;;;;;4992751;28;20042;-67
2022/08/02 05:28:14;;;;;;;12.20;6.10;;;;;;;;;;4975626;28;20105;-67
2022/08/02 05:30:40;;;;;;;13.50;6.68;;;;;;;;;;4993004;28;20121;-67
2022/08/02 05:33:06;;;;;;;13.73;6.13;;;;;;;;;;4975432;28;20050;-67
2022/08/02 05:35:32;;;;;;;11.25;5.95;;;;;;;;;;4975330;28;20048;-67
2022/08/02 05:37:58;;;;;;;12.32;6.50;;;;;;;;;;4975329;28;20042;-67
2022/08/02 05:40:24;;;;;;;13.35;6.63;;;;;;;;;;4974953;28;20393;-67
2022/08/02 05:42:50;;;;;;;14.57;6.13;;;;;;;;;;4992902;28;20847;-67
2022/08/02 05:45:16;;;;;;;12.60;6.07;;;;;;;;;;4992895;28;20147;-67
2022/08/02 05:47:42;;;;;;;12.40;6.10;;;;;;;;;;4975085;28;20054;-67
2022/08/02 05:50:09;;;;;;;13.98;6.45;;;;;;;;;;4992822;28;20096;-67
2022/08/02 05:52:56;;;;;;;10.93;6.07;;;;;;;;;;4975499;28;20053;-67
2022/08/02 05:55:33;;;;;;;11.65;5.20;;;;;;;;;;4975091;28;20108;-67
2022/08/02 05:58:19;;;;;;;12.73;5.68;;;;;;;;;;4974604;28;20045;-64
2022/08/02 06:00:45;;;;;;;11.65;5.18;;;;;;;;;;5000543;28;20125;-63
2022/08/02 06:03:31;;;;;;;14.55;5.65;;;;;;;;;;4992322;28;20070;-62
2022/08/02 06:06:13;;;;;;;11.23;5.57;;;;;;;;;;4992226;28;20046;-63
2022/08/02 06:08:42;;;;;;;9.95;5.40;;;;;;;;;;4992669;28;20374;-64
2022/08/02 06:11:11;;;;;;;8.98;5.00;;;;;;;;;;4992011;28;20436;-63
2022/08/02 06:13:37;;;;;;;14.55;5.93;;;;;;;;;;4991625;28;20471;-64
2022/08/02 06:16:04;;;;;;;13.88;5.28;;;;;;;;;;4992396;28;20129;-64
2022/08/02 06:18:31;;;;;;;10.00;5.38;;;;;;;;;;4990140;28;20478;-63
2022/08/02 06:20:58;;;;;;;12.98;5.40;;;;;;;;;;4994715;28;20377;-63
2022/08/02 06:23:25;;;;;;;10.20;5.40;;;;;;;;;;4996791;28;20049;-62
2022/08/02 06:25:52;;;;;;;8.65;5.72;;;;;;;;;;4991137;28;20118;-65
2022/08/02 06:28:18;;;;;;;11.85;5.65;;;;;;;;;;4992014;28;20046;-65
2022/08/02 06:30:45;;;;;;;10.35;5.28;;;;;;;;;;5000265;28;20046;-65
2022/08/02 06:33:12;;;;;;;12.00;5.45;;;;;;;;;;5004415;28;20383;-65
2022/08/02 06:35:57;;;;;;;10.80;4.50;;;;;;;;;;4986794;28;20050;-66
2022/08/02 06:38:29;;;;;;;13.48;4.90;;;;;;;;;;4991169;28;20117;-67
2022/08/02 06:40:56;;;;;;;12.70;5.03;;;;;;;;;;4974004;28;20050;-68
2022/08/02 06:43:22;;;;;;;7.68;4.90;;;;;;;;;;4987356;28;20046;-64
2022/08/02 06:45:48;;;;;;;8.93;4.18;;;;;;;;;;4999881;28;20070;-65
2022/08/02 06:48:15;;;;;;;10.60;4.43;;;;;;;;;;4990938;28;20062;-63
2022/08/02 06:50:42;;;;;;;12.25;5.80;;;;;;;;;;4991130;28;20042;-67
2022/08/02 06:53:09;;;;;;;8.68;4.38;;;;;;;;;;4991169;28;20049;-66
2022/08/02 06:55:36;;;;;;;9.77;4.45;;;;;;;;;;4973354;28;20049;-64
2022/08/02 06:58:02;;;;;;;11.82;4.47;;;;;;;;;;4991107;28;20050;-64
2022/08/02 07:00:28;;;;;;;12.68;4.80;;;;;;;;;;4991392;28;20042;-65
2022/08/02 07:02:55;;;;;;;11.35;4.90;;;;;;;;;;5000841;28;20375;-66
2022/08/02 07:05:21;;;;;;;11.45;4.25;;;;;;;;;;4973543;28;20129;-64
2022/08/02 07:07:47;;;;;;;6.28;4.40;;;;;;;;;;4987793;28;20441;-68
2022/08/02 07:10:13;;;;;;;14.55;5.20;;;;;;;;;;4986007;28;20100;-67
2022/08/02 07:12:40;;;;;;;9.43;4.05;;;;;;;;;;4973086;28;20038;-65
2022/08/02 07:15:07;;;;;;;9.43;4.07;;;;;;;;;;4971448;28;20041;-64
2022/08/02 07:17:33;;;;;;;8.13;3.78;;;;;;;;;;4967941;28;20130;-68
2022/08/02 07:19:59;;;;;;;10.48;4.03;;;;;;;;;;4971132;28;20057;-66
2022/08/02 07:22:26;;;;;;;9.27;3.50;;;;;;;;;;4989417;28;20045;-65
2022/08/02 07:24:53;;;;;;;7.07;3.70;;;;;;;;;;4970810;28;20043;-65
2022/08/02 07:27:20;;;;;;;7.57;3.58;;;;;;;;;;4990632;28;20049;-64
2022/08/02 07:29:46;;;;;;;7.63;3.22;;;;;;;;;;4990366;28;20383;-68
2022/08/02 07:32:12;;;;;;;9.65;3.60;;;;;;;;;;4970823;28;20047;-66
2022/08/02 07:34:38;;;;;;;7.80;3.47;;;;;;;;;;4976083;28;20474;-70
2022/08/02 07:37:04;;;;;;;6.72;3.58;;;;;;;;;;4972152;28;20389;-72
2022/08/02 07:39:30;;;;;;;9.63;3.15;;;;;;;;;;4971636;28;20046;-65
2022/08/02 07:41:57;;;;;;;9.27;3.15;;;;;;;;;;4971892;28;20042;-64
2022/08/02 07:44:23;;;;;;;8.60;2.70;;;;;;;;;;4970040;28;20077;-64
2022/08/02 07:46:49;;;;;;;6.30;3.17;;;;;;;;;;4988497;28;20069;-64
2022/08/02 07:49:17;;;;;;;8.75;2.90;;;;;;;;;;4990444;28;20472;-65
2022/08/02 07:51:47;;;;;;;7.40;2.90;;;;;;;;;;4958539;28;20038;-65
2022/08/02 07:54:13;;;;;;;11.50;3.20;;;;;;;;;;4998749;28;20050;-67
2022/08/02 07:56:39;;;;;;;9.35;5.05;;;;;;;;;;4974805;28;20038;-68
2022/08/02 07:59:05;;;;;;;8.68;2.97;;;;;;;;;;4978195;28;20047;-67
2022/08/02 08:01:31;;;;;;;10.63;3.55;;;;;;;;;;4990073;28;20042;-67
2022/08/02 08:03:57;;;;;;;6.40;2.85;;;;;;;;;;4973882;28;20047;-66
2022/08/02 08:06:23;;;;;;;7.75;2.58;;;;;;;;;;5002963;28;20046;-66
2022/08/02 08:08:49;;;;;;;12.43;3.15;;;;;;;;;;4971462;28;20058;-66
2022/08/02 08:11:15;;;;;;;7.47;2.60;;;;;;;;;;4989196;28;20110;-63
2022/08/02 08:13:41;;;;;;;6.40;2.67;;;;;;;;;;4989422;28;20046;-66
2022/08/02 08:16:07;;;;;;;6.53;2.08;;;;;;;;;;4989873;28;20038;-64
2022/08/02 08:18:33;;;;;;;7.18;2.30;;;;;;;;;;4980881;28;20046;-64
2022/08/02 08:21:00;;;;;;;4.55;1.90;;;;;;;;;;4987511;28;20054;-66
2022/08/02 08:23:26;;;;;;;6.50;2.40;;;;;;;;;;4983189;28;20050;-63
2022/08/02 08:25:52;;;;;;;7.22;1.88;;;;;;;;;;4994740;28;20108;-65
2022/08/02 08:28:18;;;;;;;5.57;1.83;;;;;;;;;;5002664;28;20507;-65
2022/08/02 08:30:44;;;;;;;4.22;1.90;;;;;;;;;;5008655;28;20037;-64
2022/08/02 08:33:10;;;;;;;6.57;1.90;;;;;;;;;;4987537;28;20512;-63
2022/08/02 08:35:36;;;;;;;7.32;1.67;;;;;;;;;;4991916;28;20060;-64
2022/08/02 08:38:02;;;;;;;8.55;1.55;;;;;;;;;;4970229;28;20133;-64
2022/08/02 08:40:28;;;;;;;4.88;1.80;;;;;;;;;;4984965;28;20042;-64
2022/08/02 08:42:54;;;;;;;4.18;1.52;;;;;;;;;;4997221;28;20250;-66
2022/08/02 08:45:21;;;;;;;4.60;1.73;;;;;;;;;;4993193;28;20527;-66
2022/08/02 08:47:51;;;;;;;4.32;1.65;;;;;;;;;;4992905;28;20214;-65
2022/08/02 08:50:23;;;;;;;2.85;1.60;;;;;;;;;;4992498;28;20574;-66
2022/08/02 08:53:02;;;;;;;7.15;1.90;;;;;;;;;;4991107;28;20093;-66
2022/08/02 08:55:28;;;;;;;5.47;1.70;;;;;;;;;;4990475;28;20054;-65
2022/08/02 08:57:57;;;;;;;5.97;1.40;;;;;;;;;;4975407;28;20046;-64
2022/08/02 09:00:23;;;;;;;3.60;1.55;;;;;;;;;;4991975;28;20042;-64
2022/08/02 09:02:49;;;;;;;4.05;1.77;;;;;;;;;;4992073;28;20377;-64
2022/08/02 09:05:16;;;;;;;5.18;1.67;;;;;;;;;;4989673;28;20978;-65
2022/08/02 09:07:43;;;;;;;10.13;2.13;;;;;;;;;;4998645;28;20069;-64
2022/08/02 09:10:28;;;;;;;4.32;1.70;;;;;;;;;;4985446;28;20054;-66
2022/08/02 09:13:08;;;;;;;5.55;1.92;;;;;;;;;;4990807;28;20034;-65
2022/08/02 09:15:34;;;;;;;6.00;1.48;;;;;;;;;;4983947;28;20433;-65
2022/08/02 09:18:01;;;;;;;1.80;1.30;;;;;;;;;;4971974;28;20620;-64
2022/08/02 09:20:27;;;;;;;3.70;1.80;;;;;;;;;;4973496;28;20061;-65
2022/08/02 09:23:11;;;;;;;3.58;1.30;;;;;;;;;;4974752;28;20125;-65
2022/08/02 09:25:38;;;;;;;4.15;1.45;;;;;;;;;;4976704;28;20042;-66
2022/08/02 09:28:04;;;;;;;4.03;1.63;;;;;;;;;;4980170;28;20046;-68
2022/08/02 09:30:31;;;;;;;7.55;1.92;;;;;;;;;;4974877;28;20046;-68
2022/08/02 09:32:57;;;;;;;5.70;1.92;;;;;;;;;;4974488;28;20065;-68
2022/08/02 09:35:36;;;;;;;13.50;2.30;;;;;;;;;;4975162;28;20088;-67
2022/08/02 09:38:12;;;;;;;5.63;2.20;;;;;;;;;;4974883;28;20750;-67
2022/08/02 09:40:40;;;;;;;6.47;1.80;;;;;;;;;;4974779;28;20077;-67
2022/08/02 09:43:07;;;;;;;7.38;2.17;;;;;;;;;;4981164;28;20056;-66
2022/08/02 09:45:33;;;;;;;5.10;2.50;;;;;;;;;;5008192;28;20042;-66
2022/08/02 09:48:07;;;;;;;4.90;2.42;;;;;;;;;;4974687;28;20450;-64
2022/08/02 09:50:35;;;;;;;4.13;2.20;;;;;;;;;;4992320;28;20121;-65
2022/08/02 09:53:02;;;;;;;7.90;3.08;;;;;;;;;;4992387;28;20042;-68
2022/08/02 09:55:28;;;;;;;5.30;3.00;;;;;;;;;;4974839;28;20049;-65
2022/08/02 09:57:54;;;;;;;5.57;2.45;;;;;;;;;;4992324;28;20034;-66
2022/08/02 10:00:20;;;;;;;10.30;3.10;;;;;;;;;;4991547;28;20041;-65
2022/08/02 10:03:05;;;;;;;5.45;2.50;;;;;;;;;;4991829;28;20050;-66
2022/08/02 10:05:44;;;;;;;5.20;3.10;;;;;;;;;;4992820;28;20044;-64
2022/08/02 10:08:10;;;;;;;5.75;2.90;;;;;;;;;;4991613;28;20039;-67
2022/08/02 10:10:37;;;;;;;7.80;2.75;;;;;;;;;;4992307;28;20046;-67
2022/08/02 10:13:04;;;;;;;5.00;2.22;;;;;;;;;;4992668;28;20042;-67
2022/08/02 10:15:30;;;;;;;7.65;3.28;;;;;;;;;;4991826;28;20030;-67
2022/08/02 10:17:56;;;;;;;6.25;2.90;;;;;;;;;;4992271;28;20038;-67
2022/08/02 10:20:22;;;;;;;6.95;2.78;;;;;;;;;;4992398;28;20070;-65
2022/08/02 10:22:50;;;;;;;8.70;3.50;;;;;;;;;;4991297;28;20441;-64
2022/08/02 10:25:16;;;;;;;10.65;3.17;;;;;;;;;;4991691;28;20493;-64
2022/08/02 10:27:43;;;;;;;4.88;3.08;;;;;;;;;;4983600;28;20041;-66
2022/08/02 10:30:09;;;;;;;6.15;3.00;;;;;;;;;;5011033;28;20056;-66
2022/08/02 10:32:45;;;;;;;4.72;3.10;;;;;;;;;;4994648;28;20085;-66
2022/08/02 10:35:14;;;;;;;6.63;3.20;;;;;;;;;;4991891;28;20077;-66
2022/08/02 10:37:40;;;;;;;7.65;3.25;;;;;;;;;;4991294;28;20520;-65
2022/08/02 10:40:21;;;;;;;8.80;3.55;;;;;;;;;;4991588;28;20042;-65
2022/08/02 10:42:51;;;;;;;6.32;3.20;;;;;;;;;;4991760;28;20100;-64
2022/08/02 10:45:18;;;;;;;4.03;2.90;;;;;;;;;;4990643;28;20557;-65
2022/08/02 10:48:07;;;;;;;8.02;3.22;;;;;;;;;;4991511;28;20096;-65
2022/08/02 10:50:47;;;;;;;6.80;3.75;;;;;;;;;;4991989;28;20482;-68
2022/08/02 10:53:30;;;;;;;9.45;3.60;;;;;;;;;;4957907;28;20034;-66
2022/08/02 10:56:00;;;;;;;7.32;2.70;;;;;;;;;;4989868;28;20126;-70
2022/08/02 10:58:28;;;;;;;4.88;3.00;;;;;;;;;;4973979;28;20138;-70
2022/08/02 11:00:54;;;;;;;6.15;3.25;;;;;;;;;;4973342;28;20049;-71
2022/08/02 11:03:38;;;;;;;5.10;3.05;;;;;;;;;;4973831;28;20101;-70
2022/08/02 11:06:04;;;;;;;6.05;2.45;;;;;;;;;;4957881;28;20053;-70
2022/08/02 11:08:30;;;;;;;5.45;3.10;;;;;;;;;;4957840;28;20438;-69
2022/08/02 11:11:16;;;;;;;4.57;2.75;;;;;;;;;;4957740;28;20046;-66
2022/08/02 11:14:01;;;;;;;6.30;2.88;;;;;;;;;;4957083;28;20034;-67
2022/08/02 11:16:46;;;;;;;5.82;2.92;;;;;;;;;;4991083;28;20065;-66
2022/08/02 11:19:12;;;;;;;3.03;2.70;;;;;;;;;;4991157;28;20050;-67
2022/08/02 11:21:38;;;;;;;6.00;2.80;;;;;;;;;;4991131;28;20095;-67
2022/08/02 11:24:22;;;;;;;7.35;2.72;;;;;;;;;;4990922;28;20046;-63
2022/08/02 11:26:49;;;;;;;3.75;2.47;;;;;;;;;;4991020;28;20172;-64
2022/08/02 11:29:15;;;;;;;4.13;2.08;;;;;;;;;;4990798;28;20042;-65
2022/08/02 11:31:42;;;;;;;7.18;2.53;;;;;;;;;;4991646;28;20042;-71
2022/08/02 11:34:09;;;;;;;4.65;2.10;;;;;;;;;;4973288;28;20096;-69
2022/08/02 11:36:49;;;;;;;4.28;2.30;;;;;;;;;;4972604;28;20050;-69
2022/08/02 11:39:17;;;;;;;4.13;2.42;;;;;;;;;;4990607;28;20856;-68
2022/08/02 11:41:47;;;;;;;6.63;2.50;;;;;;;;;;4973367;28;20054;-70
2022/08/02 11:44:13;;;;;;;4.28;2.05;;;;;;;;;;4984958;28;20476;-69
2022/08/02 11:46:40;;;;;;;4.30;2.45;;;;;;;;;;4992583;28;20172;-70
2022/08/02 11:49:16;;;;;;;6.97;2.60;;;;;;;;;;4992779;28;20049;-69
2022/08/02 11:51:53;;;;;;;6.50;2.83;;;;;;;;;;4984593;28;20078;-69
2022/08/02 11:54:26;;;;;;;4.63;2.80;;;;;;;;;;4990920;28;20038;-69
2022/08/02 11:56:53;;;;;;;4.53;2.75;;;;;;;;;;4993971;28;20050;-67
2022/08/02 11:59:19;;;;;;;6.88;3.10;;;;;;;;;;4976742;28;20046;-70
2022/08/02 12:01:45;;;;;;;4.72;2.83;;;;;;;;;;4961236;28;20460;-70
2022/08/02 12:04:11;;;;;;;6.07;2.15;;;;;;;;;;4977191;28;20070;-67
2022/08/02 12:06:37;;;;;;;5.20;2.50;;;;;;;;;;4994005;28;20125;-67
2022/08/02 12:09:11;;;;;;;4.63;2.45;;;;;;;;;;4977098;28;20529;-66
2022/08/02 12:11:37;;;;;;;5.88;3.15;;;;;;;;;;4994223;28;20171;-67
2022/08/02 12:14:04;;;;;;;4.57;2.55;;;;;;;;;;4994394;28;20117;-70
2022/08/02 12:19:26;;;;;;;3.50;2.42;;;;;;;;;;4977010;28;20078;-70
2022/08/02 12:22:11;;;;;;;4.68;3.03;;;;;;;;;;4976429;28;20042;-66
2022/08/02 12:24:37;;;;;;;7.75;3.13;;;;;;;;;;4960589;28;20381;-67
2022/08/02 12:27:04;;;;;;;4.60;2.17;;;;;;;;;;4976515;28;20092;-67
2022/08/02 12:29:31;;;;;;;4.50;3.13;;;;;;;;;;4976574;28;20057;-70
2022/08/02 12:31:57;;;;;;;6.85;3.80;;;;;;;;;;4961325;28;20069;-67
2022/08/02 12:34:24;;;;;;;5.63;3.40;;;;;;;;;;4976833;28;20038;-68
2022/08/02 12:36:59;;;;;;;6.60;3.10;;;;;;;;;;4993790;28;20045;-67
2022/08/02 12:39:36;;;;;;;3.95;2.78;;;;;;;;;;4976445;28;20409;-67
2022/08/02 12:42:02;;;;;;;4.47;2.75;;;;;;;;;;4976442;28;20500;-67
2022/08/02 12:44:28;;;;;;;2.53;2.33;;;;;;;;;;4975999;28;20046;-66
2022/08/02 12:46:58;;;;;;;5.82;2.90;;;;;;;;;;4993880;28;20138;-65
2022/08/02 12:49:24;;;;;;;4.68;2.92;;;;;;;;;;4994184;28;20042;-65
2022/08/02 12:51:50;;;;;;;5.85;3.10;;;;;;;;;;4993283;28;20073;-65
2022/08/02 12:54:19;;;;;;;6.90;3.58;;;;;;;;;;4994136;28;20508;-67
2022/08/02 12:56:46;;;;;;;4.43;3.15;;;;;;;;;;4993680;28;20030;-67
2022/08/02 12:59:12;;;;;;;5.38;2.90;;;;;;;;;;4993166;28;20043;-67
2022/08/02 13:01:39;;;;;;;4.85;3.53;;;;;;;;;;4976298;28;20553;-66
2022/08/02 13:04:05;;;;;;;5.57;2.97;;;;;;;;;;4993709;28;20077;-66
2022/08/02 13:06:31;;;;;;;4.35;3.95;;;;;;;;;;4992781;28;20042;-64
2022/08/02 13:08:57;;;;;;;6.00;4.00;;;;;;;;;;4991166;28;20394;-65
2022/08/02 13:11:24;;;;;;;6.82;4.32;;;;;;;;;;5010527;28;20130;-66
2022/08/02 13:13:50;;;;;;;7.68;4.30;;;;;;;;;;4993136;28;20357;-65
2022/08/02 13:16:16;;;;;;;4.18;3.33;;;;;;;;;;4993245;28;20088;-66
2022/08/02 13:18:44;;;;;;;5.18;3.80;;;;;;;;;;4993441;28;20046;-66
2022/08/02 13:21:10;;;;;;;6.53;3.95;;;;;;;;;;4993191;28;20076;-65
2022/08/02 13:23:36;;;;;;;5.72;3.25;;;;;;;;;;4993398;28;20038;-66
2022/08/02 13:26:03;;;;;;;6.55;4.28;;;;;;;;;;4975574;28;20050;-66
2022/08/02 13:28:29;;;;;;;6.78;4.43;;;;;;;;;;4975145;28;20088;-68
2022/08/02 13:30:55;;;;;;;8.60;4.97;;;;;;;;;;4975945;28;20596;-68
2022/08/02 13:33:21;;;;;;;7.88;4.18;;;;;;;;;;4993204;28;20038;-68
2022/08/02 13:35:47;;;;;;;6.57;4.25;;;;;;;;;;4992646;28;20096;-68
2022/08/02 13:38:13;;;;;;;6.00;4.57;;;;;;;;;;4993025;28;20161;-68
2022/08/02 13:43:24;;;;;;;8.90;4.78;;;;;;;;;;4992641;28;20050;-68
2022/08/02 13:45:51;;;;;;;6.55;4.80;;;;;;;;;;4975196;28;20664;-67
2022/08/02 13:48:17;;;;;;;10.65;5.82;;;;;;;;;;4992303;28;20085;-66
2022/08/02 13:50:43;;;;;;;8.52;6.40;;;;;;;;;;4992601;28;20784;-66
2022/08/02 13:53:09;;;;;;;8.48;5.45;;;;;;;;;;4992761;28;20047;-65
2022/08/02 13:55:35;;;;;;;7.55;5.82;;;;;;;;;;4992928;28;20385;-64
2022/08/02 13:58:03;;;;;;;10.05;5.57;;;;;;;;;;4992360;28;20046;-67
2022/08/02 14:00:30;;;;;;;7.43;4.63;;;;;;;;;;4992686;28;20081;-66
2022/08/02 14:02:56;;;;;;;7.97;5.65;;;;;;;;;;4975304;28;20108;-66
2022/08/02 14:05:28;;;;;;;7.43;5.25;;;;;;;;;;4974689;28;20080;-66
2022/08/02 14:07:55;;;;;;;6.40;4.97;;;;;;;;;;4975125;28;20530;-66
2022/08/02 14:10:20;;;;;;;8.18;5.03;;;;;;;;;;4992685;28;20049;-66
2022/08/02 14:12:47;;;;;;;9.82;5.75;;;;;;;;;;4992389;28;20397;-66
2022/08/02 14:15:13;;;;;;;8.45;6.25;;;;;;;;;;4992607;28;20049;-66
2022/08/02 14:17:39;;;;;;;7.15;5.20;;;;;;;;;;4992538;28;20044;-66
2022/08/02 14:20:05;;;;;;;7.72;5.63;;;;;;;;;;4974510;28;20046;-66
2022/08/02 14:22:31;;;;;;;9.95;6.55;;;;;;;;;;4974582;28;20115;-66
2022/08/02 14:24:57;;;;;;;11.18;6.97;;;;;;;;;;4974651;28;20057;-66
2022/08/02 14:27:23;;;;;;;9.88;6.55;;;;;;;;;;4991987;28;20078;-66
2022/08/02 14:29:50;;;;;;;12.90;7.40;;;;;;;;;;4974755;28;20049;-66
2022/08/02 14:32:16;;;;;;;8.57;6.68;;;;;;;;;;4992084;28;20050;-66
2022/08/02 14:34:43;;;;;;;13.57;6.97;;;;;;;;;;4974659;28;20057;-66
2022/08/02 14:37:09;;;;;;;10.77;7.20;;;;;;;;;;4992081;28;20587;-66
2022/08/02 14:39:36;;;;;;;8.65;6.63;;;;;;;;;;4974799;28;20053;-66
2022/08/02 14:42:02;;;;;;;11.30;6.43;;;;;;;;;;4974287;28;20042;-66
2022/08/02 14:44:28;;;;;;;8.60;6.03;;;;;;;;;;4991774;28;20050;-66
2022/08/02 14:46:55;;;;;;;10.60;6.80;;;;;;;;;;4991550;28;20054;-66
2022/08/02 14:49:21;;;;;;;8.27;5.40;;;;;;;;;;4991785;28;20517;-66